METAR Data

Data at: 2212 UTC 01 Dec 2021

METAR for:KACK (Nantucket Mem Arpt, MA, US)
Text:KACK 012153Z 25007KT 10SM CLR 07/00 A3014 RMK AO2 SLP206 T00720000
Temperature: 7.2°C ( 45°F)
Dewpoint: 0.0°C ( 32°F) [RH = 60%]
Pressure (altimeter):30.14 inches Hg (1020.7 mb) [Sea level pressure: 1020.6 mb]
Winds:from the WSW (250 degrees) at 8 MPH (7 knots; 3.6 m/s)
Visibility:10 or more sm (16+ km)
Ceiling:at least 12,000 feet AGL
Clouds:sky clear below 12,000 feet AGL